Airfield :
LOGIN :

Register | Disclaimer

   EN    FR    IT 

 










Legend :    VFR   Marginal VFR   IFR   Intensive IFR   Very Intensive IFR
Visi :
Ceiling :
>= 8 km
>= 3000ft
5 to 8 km
1000 to 3000 ft
1500m to 5 km
500 to 1000 ft
800 to 1500m
200 to 500 ft
< 800m
< 200 ft
Symbols :   Thunderstorms  Fog  Heavy snow  Heavy precipitations  Wind > 20 kt
SIGMETs :     Misc.  Thunderstorms  Icing  Turbulence  Mountain Waves  Volcanic Ashes







- Airport Elevation : 36 ft
- IATA code : LTQ
- Download approach charts


LFAT - Le Touquet

CURRENT METAR :
  • 231500Z AUTO 04010KT 8000 OVC036/// 11/08 Q1031 NOSIG

EXPIRED METARs :
  • 231430Z AUTO 03011KT 7000 FEW016/// OVC036/// 11/09 Q1031 NOSIG
  • 231400Z AUTO 01009KT 7000 FEW016/// OVC035/// 12/09 Q1031 NOSIG
  • 231330Z AUTO 33007KT 4600 BR BKN016/// BKN025/// OVC034/// 11/09 Q1031 BECMG 9999 NSW
  • 231300Z AUTO 32005KT 4500 BR BKN018/// BKN024/// OVC033/// 11/09 Q1031 BECMG 9999 NSW
  • 231230Z AUTO 33007KT 4700 BR FEW018/// SCT023/// OVC035/// 11/09 Q1031 BECMG 9999 NSW

TAF TAF LFAT
Valid from the 23 at 15:00 until the 24 at 00:00 UTC


231400Z 2315/2324 33007KT 4000 BR BKN018
BECMG 2315/2318 05010KT 9999 NSW
ATIS : +33 3 21 06 62 84
No reported NOTAMs for that airfield.



MET'MAP, your aeronautical weather chart ! - Copyright ORBIFLY December 2007 - Disclaimer

ORBIFLY MET'MAP TEAM :

Programming & Development : Alexandra Zaïnal
Concept & Development : Baudouin d'Aumeries
Co-Development & Prog : Marc-Olivier Méhu
Technical & hardware support : Manuel Goepfert

Contact : metmap@orbifly.com




SOURCES & CREDITS :

   NOAA